sensor_id;sensor_type;location;lat;lon;timestamp;temperature;humidity
8711;DHT22;4392;47.400;8.062;2022-11-13T00:00:52;10.70;99.90
8711;DHT22;4392;47.400;8.062;2022-11-13T00:03:23;10.70;99.90
8711;DHT22;4392;47.400;8.062;2022-11-13T00:06:00;10.70;99.90
8711;DHT22;4392;47.400;8.062;2022-11-13T00:08:26;10.70;99.90
8711;DHT22;4392;47.400;8.062;2022-11-13T00:11:02;10.70;99.90
8711;DHT22;4392;47.400;8.062;2022-11-13T00:13:28;10.60;99.90
8711;DHT22;4392;47.400;8.062;2022-11-13T00:15:58;10.60;99.90
8711;DHT22;4392;47.400;8.062;2022-11-13T00:18:28;10.60;99.90
8711;DHT22;4392;47.400;8.062;2022-11-13T00:21:02;10.60;99.90
8711;DHT22;4392;47.400;8.062;2022-11-13T00:23:31;10.60;99.90
8711;DHT22;4392;47.400;8.062;2022-11-13T00:26:20;10.60;99.90
8711;DHT22;4392;47.400;8.062;2022-11-13T00:28:50;10.60;99.90
8711;DHT22;4392;47.400;8.062;2022-11-13T00:31:16;10.60;99.90
8711;DHT22;4392;47.400;8.062;2022-11-13T00:33:42;10.60;99.90
8711;DHT22;4392;47.400;8.062;2022-11-13T00:36:13;10.60;99.90
8711;DHT22;4392;47.400;8.062;2022-11-13T00:38:44;10.60;99.90
8711;DHT22;4392;47.400;8.062;2022-11-13T00:41:10;10.60;99.90
8711;DHT22;4392;47.400;8.062;2022-11-13T00:43:39;10.60;99.90
8711;DHT22;4392;47.400;8.062;2022-11-13T00:46:05;10.60;99.90
8711;DHT22;4392;47.400;8.062;2022-11-13T00:48:32;10.50;99.90
8711;DHT22;4392;47.400;8.062;2022-11-13T00:50:58;10.50;99.90
8711;DHT22;4392;47.400;8.062;2022-11-13T00:53:24;10.60;99.90
8711;DHT22;4392;47.400;8.062;2022-11-13T00:55:50;10.60;99.90
8711;DHT22;4392;47.400;8.062;2022-11-13T00:58:16;10.50;99.90
8711;DHT22;4392;47.400;8.062;2022-11-13T01:00:47;10.60;99.90
8711;DHT22;4392;47.400;8.062;2022-11-13T01:03:15;10.50;99.90
8711;DHT22;4392;47.400;8.062;2022-11-13T01:05:43;10.50;99.90
8711;DHT22;4392;47.400;8.062;2022-11-13T01:08:10;10.50;99.90
8711;DHT22;4392;47.400;8.062;2022-11-13T01:10:47;10.50;99.90
8711;DHT22;4392;47.400;8.062;2022-11-13T01:13:13;10.50;99.90
8711;DHT22;4392;47.400;8.062;2022-11-13T01:15:41;10.50;99.90
8711;DHT22;4392;47.400;8.062;2022-11-13T01:18:07;10.50;99.90
8711;DHT22;4392;47.400;8.062;2022-11-13T01:20:38;10.50;99.90
8711;DHT22;4392;47.400;8.062;2022-11-13T01:23:07;10.50;99.90
8711;DHT22;4392;47.400;8.062;2022-11-13T01:25:35;10.40;99.90
8711;DHT22;4392;47.400;8.062;2022-11-13T01:28:03;10.40;99.90
8711;DHT22;4392;47.400;8.062;2022-11-13T01:30:31;10.40;99.90
8711;DHT22;4392;47.400;8.062;2022-11-13T01:32:57;10.50;99.90
8711;DHT22;4392;47.400;8.062;2022-11-13T01:35:22;10.40;99.90
8711;DHT22;4392;47.400;8.062;2022-11-13T01:37:48;10.40;99.90
8711;DHT22;4392;47.400;8.062;2022-11-13T01:40:14;10.40;99.90
8711;DHT22;4392;47.400;8.062;2022-11-13T01:42:40;10.40;99.90
8711;DHT22;4392;47.400;8.062;2022-11-13T01:48:11;10.30;99.90
8711;DHT22;4392;47.400;8.062;2022-11-13T01:50:37;10.30;99.90
8711;DHT22;4392;47.400;8.062;2022-11-13T01:53:04;10.40;99.90
8711;DHT22;4392;47.400;8.062;2022-11-13T01:55:30;10.40;99.90
8711;DHT22;4392;47.400;8.062;2022-11-13T01:57:56;10.40;99.90
8711;DHT22;4392;47.400;8.062;2022-11-13T02:00:24;10.40;99.90
8711;DHT22;4392;47.400;8.062;2022-11-13T02:02:49;10.30;99.90
8711;DHT22;4392;47.400;8.062;2022-11-13T02:05:15;10.30;99.90
8711;DHT22;4392;47.400;8.062;2022-11-13T02:07:41;10.30;99.90
8711;DHT22;4392;47.400;8.062;2022-11-13T02:10:09;10.30;99.90
8711;DHT22;4392;47.400;8.062;2022-11-13T02:12:38;10.30;99.90
8711;DHT22;4392;47.400;8.062;2022-11-13T02:15:06;10.40;99.90
8711;DHT22;4392;47.400;8.062;2022-11-13T02:17:46;10.40;99.90
8711;DHT22;4392;47.400;8.062;2022-11-13T02:20:14;10.40;99.90
8711;DHT22;4392;47.400;8.062;2022-11-13T02:25:27;10.30;99.90
8711;DHT22;4392;47.400;8.062;2022-11-13T02:27:54;10.30;99.90
8711;DHT22;4392;47.400;8.062;2022-11-13T02:30:26;10.30;99.90
8711;DHT22;4392;47.400;8.062;2022-11-13T02:32:56;10.30;99.90
8711;DHT22;4392;47.400;8.062;2022-11-13T02:35:26;10.30;99.90
8711;DHT22;4392;47.400;8.062;2022-11-13T02:37:54;10.40;99.90
8711;DHT22;4392;47.400;8.062;2022-11-13T02:40:20;10.30;99.90
8711;DHT22;4392;47.400;8.062;2022-11-13T02:42:46;10.30;99.90
8711;DHT22;4392;47.400;8.062;2022-11-13T02:45:12;10.30;99.90
8711;DHT22;4392;47.400;8.062;2022-11-13T02:47:38;10.30;99.90
8711;DHT22;4392;47.400;8.062;2022-11-13T02:50:04;10.30;99.90
8711;DHT22;4392;47.400;8.062;2022-11-13T02:52:30;10.30;99.90
8711;DHT22;4392;47.400;8.062;2022-11-13T02:54:56;10.20;99.90
8711;DHT22;4392;47.400;8.062;2022-11-13T02:57:22;10.20;99.90
8711;DHT22;4392;47.400;8.062;2022-11-13T02:59:48;10.20;99.90
8711;DHT22;4392;47.400;8.062;2022-11-13T03:02:13;10.20;99.90
8711;DHT22;4392;47.400;8.062;2022-11-13T03:04:39;10.20;99.90
8711;DHT22;4392;47.400;8.062;2022-11-13T03:07:05;10.20;99.90
8711;DHT22;4392;47.400;8.062;2022-11-13T03:09:31;10.20;99.90
8711;DHT22;4392;47.400;8.062;2022-11-13T03:11:57;10.20;99.90
8711;DHT22;4392;47.400;8.062;2022-11-13T03:14:22;10.30;99.90
8711;DHT22;4392;47.400;8.062;2022-11-13T03:16:48;10.20;99.90
8711;DHT22;4392;47.400;8.062;2022-11-13T03:19:21;10.10;99.90
8711;DHT22;4392;47.400;8.062;2022-11-13T03:21:47;10.20;99.90
8711;DHT22;4392;47.400;8.062;2022-11-13T03:24:13;10.20;99.90
8711;DHT22;4392;47.400;8.062;2022-11-13T03:26:41;10.30;99.90
8711;DHT22;4392;47.400;8.062;2022-11-13T03:29:07;10.30;99.90
8711;DHT22;4392;47.400;8.062;2022-11-13T03:31:33;10.30;99.90
8711;DHT22;4392;47.400;8.062;2022-11-13T03:33:59;10.20;99.90
8711;DHT22;4392;47.400;8.062;2022-11-13T03:36:24;10.20;99.90
8711;DHT22;4392;47.400;8.062;2022-11-13T03:38:51;10.10;99.90
8711;DHT22;4392;47.400;8.062;2022-11-13T03:41:17;10.20;99.90
8711;DHT22;4392;47.400;8.062;2022-11-13T03:43:43;10.20;99.90
8711;DHT22;4392;47.400;8.062;2022-11-13T03:46:08;10.20;99.90
8711;DHT22;4392;47.400;8.062;2022-11-13T03:48:34;10.20;99.90
8711;DHT22;4392;47.400;8.062;2022-11-13T03:51:01;10.20;99.90
8711;DHT22;4392;47.400;8.062;2022-11-13T03:53:32;10.20;99.90
8711;DHT22;4392;47.400;8.062;2022-11-13T03:55:58;10.20;99.90
8711;DHT22;4392;47.400;8.062;2022-11-13T03:58:24;10.20;99.90
8711;DHT22;4392;47.400;8.062;2022-11-13T04:00:53;10.20;99.90
8711;DHT22;4392;47.400;8.062;2022-11-13T04:03:22;10.10;99.90
8711;DHT22;4392;47.400;8.062;2022-11-13T04:05:49;10.10;99.90
8711;DHT22;4392;47.400;8.062;2022-11-13T04:08:15;10.10;99.90
8711;DHT22;4392;47.400;8.062;2022-11-13T04:10:41;10.10;99.90
8711;DHT22;4392;47.400;8.062;2022-11-13T04:13:07;10.10;99.90
8711;DHT22;4392;47.400;8.062;2022-11-13T04:15:37;10.10;99.90
8711;DHT22;4392;47.400;8.062;2022-11-13T04:18:03;10.10;99.90
8711;DHT22;4392;47.400;8.062;2022-11-13T04:20:29;10.10;99.90
8711;DHT22;4392;47.400;8.062;2022-11-13T04:22:55;10.10;99.90
8711;DHT22;4392;47.400;8.062;2022-11-13T04:25:21;10.10;99.90
8711;DHT22;4392;47.400;8.062;2022-11-13T04:27:49;10.10;99.90
8711;DHT22;4392;47.400;8.062;2022-11-13T04:30:14;10.10;99.90
8711;DHT22;4392;47.400;8.062;2022-11-13T04:32:40;10.10;99.90
8711;DHT22;4392;47.400;8.062;2022-11-13T04:35:06;10.10;99.90
8711;DHT22;4392;47.400;8.062;2022-11-13T04:37:32;10.20;99.90
8711;DHT22;4392;47.400;8.062;2022-11-13T04:39:58;10.20;99.90
8711;DHT22;4392;47.400;8.062;2022-11-13T04:42:24;10.20;99.90
8711;DHT22;4392;47.400;8.062;2022-11-13T04:45:09;10.10;99.90
8711;DHT22;4392;47.400;8.062;2022-11-13T04:47:40;10.20;99.90
8711;DHT22;4392;47.400;8.062;2022-11-13T04:50:06;10.20;99.90
8711;DHT22;4392;47.400;8.062;2022-11-13T04:52:32;10.20;99.90
8711;DHT22;4392;47.400;8.062;2022-11-13T04:54:58;10.20;99.90
8711;DHT22;4392;47.400;8.062;2022-11-13T04:57:24;10.20;99.90
8711;DHT22;4392;47.400;8.062;2022-11-13T04:59:50;10.10;99.90
8711;DHT22;4392;47.400;8.062;2022-11-13T05:02:18;10.10;99.90
8711;DHT22;4392;47.400;8.062;2022-11-13T05:04:47;10.10;99.90
8711;DHT22;4392;47.400;8.062;2022-11-13T05:07:18;10.10;99.90
8711;DHT22;4392;47.400;8.062;2022-11-13T05:09:44;10.20;99.90
8711;DHT22;4392;47.400;8.062;2022-11-13T05:12:10;10.20;99.90
8711;DHT22;4392;47.400;8.062;2022-11-13T05:14:37;10.20;99.90
8711;DHT22;4392;47.400;8.062;2022-11-13T05:17:04;10.20;99.90
8711;DHT22;4392;47.400;8.062;2022-11-13T05:19:32;10.20;99.90
8711;DHT22;4392;47.400;8.062;2022-11-13T05:22:04;10.10;99.90
8711;DHT22;4392;47.400;8.062;2022-11-13T05:24:33;10.10;99.90
8711;DHT22;4392;47.400;8.062;2022-11-13T05:26:58;10.10;99.90
8711;DHT22;4392;47.400;8.062;2022-11-13T05:29:24;10.10;99.90
8711;DHT22;4392;47.400;8.062;2022-11-13T05:31:51;10.10;99.90
8711;DHT22;4392;47.400;8.062;2022-11-13T05:34:17;10.10;99.90
8711;DHT22;4392;47.400;8.062;2022-11-13T05:36:43;10.10;99.90
8711;DHT22;4392;47.400;8.062;2022-11-13T05:39:08;10.30;99.90
8711;DHT22;4392;47.400;8.062;2022-11-13T05:41:34;10.30;99.90
8711;DHT22;4392;47.400;8.062;2022-11-13T05:44:00;10.30;99.90
8711;DHT22;4392;47.400;8.062;2022-11-13T05:46:27;10.30;99.90
8711;DHT22;4392;47.400;8.062;2022-11-13T05:48:58;10.30;99.90
8711;DHT22;4392;47.400;8.062;2022-11-13T05:51:30;10.20;99.90
8711;DHT22;4392;47.400;8.062;2022-11-13T05:53:57;10.10;99.90
8711;DHT22;4392;47.400;8.062;2022-11-13T05:56:32;10.20;99.90
8711;DHT22;4392;47.400;8.062;2022-11-13T05:59:00;10.20;99.90
8711;DHT22;4392;47.400;8.062;2022-11-13T06:01:35;10.20;99.90
8711;DHT22;4392;47.400;8.062;2022-11-13T06:04:01;10.20;99.90
8711;DHT22;4392;47.400;8.062;2022-11-13T06:06:29;10.10;99.90
8711;DHT22;4392;47.400;8.062;2022-11-13T06:09:02;10.10;99.90
8711;DHT22;4392;47.400;8.062;2022-11-13T06:11:29;10.10;99.90
8711;DHT22;4392;47.400;8.062;2022-11-13T06:14:07;10.10;99.90
8711;DHT22;4392;47.400;8.062;2022-11-13T06:16:35;10.10;99.90
8711;DHT22;4392;47.400;8.062;2022-11-13T06:19:03;10.10;99.90
8711;DHT22;4392;47.400;8.062;2022-11-13T06:21:31;10.30;99.90
8711;DHT22;4392;47.400;8.062;2022-11-13T06:24:06;10.30;99.90
8711;DHT22;4392;47.400;8.062;2022-11-13T06:26:34;10.30;99.90
8711;DHT22;4392;47.400;8.062;2022-11-13T06:29:02;10.20;99.90
8711;DHT22;4392;47.400;8.062;2022-11-13T06:31:35;10.10;99.90
8711;DHT22;4392;47.400;8.062;2022-11-13T06:34:04;10.10;99.90
8711;DHT22;4392;47.400;8.062;2022-11-13T06:36:33;10.10;99.90
8711;DHT22;4392;47.400;8.062;2022-11-13T06:39:00;10.10;99.90
8711;DHT22;4392;47.400;8.062;2022-11-13T06:41:28;10.20;99.90
8711;DHT22;4392;47.400;8.062;2022-11-13T06:43:54;10.20;99.90
8711;DHT22;4392;47.400;8.062;2022-11-13T06:46:25;10.20;99.90
8711;DHT22;4392;47.400;8.062;2022-11-13T06:48:51;10.20;99.90
8711;DHT22;4392;47.400;8.062;2022-11-13T06:51:20;10.40;99.90
8711;DHT22;4392;47.400;8.062;2022-11-13T06:53:47;10.40;99.90
8711;DHT22;4392;47.400;8.062;2022-11-13T06:56:13;10.40;99.90
8711;DHT22;4392;47.400;8.062;2022-11-13T06:58:39;10.50;99.90
8711;DHT22;4392;47.400;8.062;2022-11-13T07:01:07;10.40;99.90
8711;DHT22;4392;47.400;8.062;2022-11-13T07:03:39;10.40;99.90
8711;DHT22;4392;47.400;8.062;2022-11-13T07:06:08;10.40;99.90
8711;DHT22;4392;47.400;8.062;2022-11-13T07:08:34;10.30;99.90
8711;DHT22;4392;47.400;8.062;2022-11-13T07:11:00;11.40;99.90
8711;DHT22;4392;47.400;8.062;2022-11-13T07:13:27;11.30;99.90
8711;DHT22;4392;47.400;8.062;2022-11-13T07:16:01;11.00;99.90
8711;DHT22;4392;47.400;8.062;2022-11-13T07:18:49;10.90;99.90
8711;DHT22;4392;47.400;8.062;2022-11-13T07:21:16;10.90;99.90
8711;DHT22;4392;47.400;8.062;2022-11-13T07:23:42;10.70;99.90
8711;DHT22;4392;47.400;8.062;2022-11-13T07:26:10;10.70;99.90
8711;DHT22;4392;47.400;8.062;2022-11-13T07:28:48;10.70;99.90
8711;DHT22;4392;47.400;8.062;2022-11-13T07:31:15;10.70;99.90
8711;DHT22;4392;47.400;8.062;2022-11-13T07:33:47;10.70;99.90
8711;DHT22;4392;47.400;8.062;2022-11-13T07:36:13;10.80;99.90
8711;DHT22;4392;47.400;8.062;2022-11-13T07:38:39;10.80;99.90
8711;DHT22;4392;47.400;8.062;2022-11-13T07:41:05;10.90;99.90
8711;DHT22;4392;47.400;8.062;2022-11-13T07:43:31;11.00;99.90
8711;DHT22;4392;47.400;8.062;2022-11-13T07:46:00;11.20;99.90
8711;DHT22;4392;47.400;8.062;2022-11-13T07:48:27;11.90;99.90
8711;DHT22;4392;47.400;8.062;2022-11-13T07:50:54;12.10;99.90
8711;DHT22;4392;47.400;8.062;2022-11-13T07:53:20;12.50;99.90
8711;DHT22;4392;47.400;8.062;2022-11-13T07:55:46;12.80;99.90
8711;DHT22;4392;47.400;8.062;2022-11-13T07:58:15;12.60;99.90
8711;DHT22;4392;47.400;8.062;2022-11-13T08:00:44;12.90;99.90
8711;DHT22;4392;47.400;8.062;2022-11-13T08:03:14;13.00;99.90
8711;DHT22;4392;47.400;8.062;2022-11-13T08:05:40;13.10;99.90
8711;DHT22;4392;47.400;8.062;2022-11-13T08:08:14;13.00;99.90
8711;DHT22;4392;47.400;8.062;2022-11-13T08:10:45;12.90;99.90
8711;DHT22;4392;47.400;8.062;2022-11-13T08:13:11;12.40;99.90
8711;DHT22;4392;47.400;8.062;2022-11-13T08:15:38;12.00;99.90
8711;DHT22;4392;47.400;8.062;2022-11-13T08:18:13;11.70;99.90
8711;DHT22;4392;47.400;8.062;2022-11-13T08:20:45;11.50;99.90
8711;DHT22;4392;47.400;8.062;2022-11-13T08:23:10;11.40;99.90
8711;DHT22;4392;47.400;8.062;2022-11-13T08:25:39;11.30;99.90
8711;DHT22;4392;47.400;8.062;2022-11-13T08:28:05;11.30;99.90
8711;DHT22;4392;47.400;8.062;2022-11-13T08:30:36;11.20;99.90
8711;DHT22;4392;47.400;8.062;2022-11-13T08:33:05;11.10;99.90
8711;DHT22;4392;47.400;8.062;2022-11-13T08:35:37;11.20;99.90
8711;DHT22;4392;47.400;8.062;2022-11-13T08:38:08;11.20;99.90
8711;DHT22;4392;47.400;8.062;2022-11-13T08:40:34;11.10;99.90
8711;DHT22;4392;47.400;8.062;2022-11-13T08:43:02;10.90;99.90
8711;DHT22;4392;47.400;8.062;2022-11-13T08:45:28;11.00;99.90
8711;DHT22;4392;47.400;8.062;2022-11-13T08:47:59;11.20;99.90
8711;DHT22;4392;47.400;8.062;2022-11-13T08:50:25;11.10;99.90
8711;DHT22;4392;47.400;8.062;2022-11-13T08:52:55;11.00;99.90
8711;DHT22;4392;47.400;8.062;2022-11-13T08:55:22;10.90;99.90
8711;DHT22;4392;47.400;8.062;2022-11-13T08:57:48;10.90;99.90
8711;DHT22;4392;47.400;8.062;2022-11-13T09:00:14;10.90;99.90
8711;DHT22;4392;47.400;8.062;2022-11-13T09:02:46;10.90;99.90
8711;DHT22;4392;47.400;8.062;2022-11-13T09:05:11;11.10;99.90
8711;DHT22;4392;47.400;8.062;2022-11-13T09:07:38;11.00;99.90
8711;DHT22;4392;47.400;8.062;2022-11-13T09:10:04;11.00;99.90
8711;DHT22;4392;47.400;8.062;2022-11-13T09:12:33;11.10;99.90
8711;DHT22;4392;47.400;8.062;2022-11-13T09:15:00;11.00;99.90
8711;DHT22;4392;47.400;8.062;2022-11-13T09:17:26;11.00;99.90
8711;DHT22;4392;47.400;8.062;2022-11-13T09:19:51;10.90;99.90
8711;DHT22;4392;47.400;8.062;2022-11-13T09:22:18;10.90;99.90
8711;DHT22;4392;47.400;8.062;2022-11-13T09:24:43;10.80;99.90
8711;DHT22;4392;47.400;8.062;2022-11-13T09:27:09;10.80;99.90
8711;DHT22;4392;47.400;8.062;2022-11-13T09:29:38;11.00;99.90
8711;DHT22;4392;47.400;8.062;2022-11-13T09:32:04;12.00;99.90
8711;DHT22;4392;47.400;8.062;2022-11-13T09:34:35;11.60;99.90
8711;DHT22;4392;47.400;8.062;2022-11-13T09:37:01;11.20;99.90
8711;DHT22;4392;47.400;8.062;2022-11-13T09:39:27;11.10;99.90
8711;DHT22;4392;47.400;8.062;2022-11-13T09:41:57;11.20;99.90
8711;DHT22;4392;47.400;8.062;2022-11-13T09:44:36;11.60;99.90
8711;DHT22;4392;47.400;8.062;2022-11-13T09:47:35;11.50;99.90
8711;DHT22;4392;47.400;8.062;2022-11-13T09:50:08;11.40;99.90
8711;DHT22;4392;47.400;8.062;2022-11-13T09:52:40;11.40;99.90
8711;DHT22;4392;47.400;8.062;2022-11-13T09:55:12;11.40;99.90
8711;DHT22;4392;47.400;8.062;2022-11-13T10:00:12;11.30;99.90
8711;DHT22;4392;47.400;8.062;2022-11-13T10:05:44;11.80;99.90
8711;DHT22;4392;47.400;8.062;2022-11-13T10:13:44;13.00;99.90
8711;DHT22;4392;47.400;8.062;2022-11-13T10:19:13;13.30;99.90
8711;DHT22;4392;47.400;8.062;2022-11-13T10:21:59;12.60;99.90
8711;DHT22;4392;47.400;8.062;2022-11-13T10:24:45;12.20;99.90
8711;DHT22;4392;47.400;8.062;2022-11-13T10:27:13;12.10;99.90
8711;DHT22;4392;47.400;8.062;2022-11-13T10:29:40;12.00;99.90
8711;DHT22;4392;47.400;8.062;2022-11-13T10:32:28;11.90;99.90
8711;DHT22;4392;47.400;8.062;2022-11-13T10:35:22;11.90;99.90
8711;DHT22;4392;47.400;8.062;2022-11-13T10:40:33;11.90;99.90
8711;DHT22;4392;47.400;8.062;2022-11-13T10:45:39;11.80;99.90
8711;DHT22;4392;47.400;8.062;2022-11-13T10:48:17;11.70;99.90
8711;DHT22;4392;47.400;8.062;2022-11-13T10:50:55;11.70;99.90
8711;DHT22;4392;47.400;8.062;2022-11-13T10:53:21;11.60;99.90
8711;DHT22;4392;47.400;8.062;2022-11-13T10:55:50;11.60;99.90
8711;DHT22;4392;47.400;8.062;2022-11-13T10:58:18;11.60;99.90
8711;DHT22;4392;47.400;8.062;2022-11-13T11:00:45;11.60;99.90
8711;DHT22;4392;47.400;8.062;2022-11-13T11:03:20;11.60;99.90
8711;DHT22;4392;47.400;8.062;2022-11-13T11:05:57;11.40;99.90
8711;DHT22;4392;47.400;8.062;2022-11-13T11:08:35;11.30;99.90
8711;DHT22;4392;47.400;8.062;2022-11-13T11:11:13;11.20;99.90
8711;DHT22;4392;47.400;8.062;2022-11-13T11:14:25;11.40;99.90
8711;DHT22;4392;47.400;8.062;2022-11-13T11:16:52;11.60;99.90
8711;DHT22;4392;47.400;8.062;2022-11-13T11:19:25;11.40;99.90
8711;DHT22;4392;47.400;8.062;2022-11-13T11:22:03;11.20;99.90
8711;DHT22;4392;47.400;8.062;2022-11-13T11:24:37;11.30;99.90
8711;DHT22;4392;47.400;8.062;2022-11-13T11:30:24;11.40;99.90
8711;DHT22;4392;47.400;8.062;2022-11-13T11:35:52;11.60;99.90
8711;DHT22;4392;47.400;8.062;2022-11-13T11:38:25;11.60;99.90
8711;DHT22;4392;47.400;8.062;2022-11-13T11:41:27;11.60;99.90
8711;DHT22;4392;47.400;8.062;2022-11-13T11:44:27;11.50;99.90
8711;DHT22;4392;47.400;8.062;2022-11-13T11:46:55;11.50;99.90
8711;DHT22;4392;47.400;8.062;2022-11-13T11:49:22;11.60;99.90
8711;DHT22;4392;47.400;8.062;2022-11-13T11:55:12;11.70;99.90
8711;DHT22;4392;47.400;8.062;2022-11-13T12:00:15;11.70;99.90
8711;DHT22;4392;47.400;8.062;2022-11-13T12:03:00;11.60;99.90
8711;DHT22;4392;47.400;8.062;2022-11-13T12:25:13;11.30;99.90
8711;DHT22;4392;47.400;8.062;2022-11-13T12:27:57;11.30;99.90
8711;DHT22;4392;47.400;8.062;2022-11-13T12:36:11;11.00;99.90
8711;DHT22;4392;47.400;8.062;2022-11-13T12:41:43;11.00;99.90
8711;DHT22;4392;47.400;8.062;2022-11-13T12:44:24;10.90;99.90
8711;DHT22;4392;47.400;8.062;2022-11-13T12:46:52;10.90;99.90
8711;DHT22;4392;47.400;8.062;2022-11-13T12:51:56;10.90;99.90
8711;DHT22;4392;47.400;8.062;2022-11-13T12:54:31;10.90;99.90
8711;DHT22;4392;47.400;8.062;2022-11-13T12:59:51;10.80;99.90
8711;DHT22;4392;47.400;8.062;2022-11-13T13:02:48;10.80;99.90
8711;DHT22;4392;47.400;8.062;2022-11-13T13:11:10;11.30;99.90
8711;DHT22;4392;47.400;8.062;2022-11-13T13:14:29;11.30;99.90
8711;DHT22;4392;47.400;8.062;2022-11-13T13:17:17;11.20;99.90
8711;DHT22;4392;47.400;8.062;2022-11-13T13:19:44;11.20;99.90
8711;DHT22;4392;47.400;8.062;2022-11-13T13:22:29;11.20;99.90
8711;DHT22;4392;47.400;8.062;2022-11-13T13:25:24;11.10;99.90
8711;DHT22;4392;47.400;8.062;2022-11-13T13:30:23;11.10;99.90
8711;DHT22;4392;47.400;8.062;2022-11-13T13:32:59;11.10;99.90
8711;DHT22;4392;47.400;8.062;2022-11-13T13:41:44;11.50;99.90
8711;DHT22;4392;47.400;8.062;2022-11-13T13:44:30;11.60;99.90
8711;DHT22;4392;47.400;8.062;2022-11-13T13:47:02;11.60;99.90
8711;DHT22;4392;47.400;8.062;2022-11-13T13:49:31;11.60;99.90
8711;DHT22;4392;47.400;8.062;2022-11-13T13:51:58;11.70;99.90
8711;DHT22;4392;47.400;8.062;2022-11-13T13:54:29;11.60;99.90
8711;DHT22;4392;47.400;8.062;2022-11-13T13:56:57;11.60;99.90
8711;DHT22;4392;47.400;8.062;2022-11-13T13:59:33;11.50;99.90
8711;DHT22;4392;47.400;8.062;2022-11-13T14:02:12;11.50;99.90
8711;DHT22;4392;47.400;8.062;2022-11-13T14:04:52;11.60;99.90
8711;DHT22;4392;47.400;8.062;2022-11-13T14:07:27;11.50;99.90
8711;DHT22;4392;47.400;8.062;2022-11-13T14:12:32;11.30;99.90
8711;DHT22;4392;47.400;8.062;2022-11-13T14:14:57;11.30;99.90
8711;DHT22;4392;47.400;8.062;2022-11-13T14:17:23;11.30;99.90
8711;DHT22;4392;47.400;8.062;2022-11-13T14:19:54;11.40;99.90
8711;DHT22;4392;47.400;8.062;2022-11-13T14:22:21;11.40;99.90
8711;DHT22;4392;47.400;8.062;2022-11-13T14:24:56;11.30;99.90
8711;DHT22;4392;47.400;8.062;2022-11-13T14:27:26;11.30;99.90
8711;DHT22;4392;47.400;8.062;2022-11-13T14:29:57;11.30;99.90
8711;DHT22;4392;47.400;8.062;2022-11-13T14:32:28;11.20;99.90
8711;DHT22;4392;47.400;8.062;2022-11-13T14:34:57;11.20;99.90
8711;DHT22;4392;47.400;8.062;2022-11-13T14:37:32;11.20;99.90
8711;DHT22;4392;47.400;8.062;2022-11-13T14:40:04;11.30;99.90
8711;DHT22;4392;47.400;8.062;2022-11-13T14:42:36;11.30;99.90
8711;DHT22;4392;47.400;8.062;2022-11-13T14:45:22;11.40;99.90
8711;DHT22;4392;47.400;8.062;2022-11-13T14:47:58;11.40;99.90
8711;DHT22;4392;47.400;8.062;2022-11-13T14:50:35;12.40;99.90
8711;DHT22;4392;47.400;8.062;2022-11-13T14:53:03;12.30;99.90
8711;DHT22;4392;47.400;8.062;2022-11-13T14:55:48;12.10;99.90
8711;DHT22;4392;47.400;8.062;2022-11-13T14:58:26;12.10;99.90
8711;DHT22;4392;47.400;8.062;2022-11-13T15:00:52;11.90;99.90
8711;DHT22;4392;47.400;8.062;2022-11-13T15:03:18;11.90;99.90
8711;DHT22;4392;47.400;8.062;2022-11-13T15:05:43;12.10;99.90
8711;DHT22;4392;47.400;8.062;2022-11-13T15:08:13;12.00;99.90
8711;DHT22;4392;47.400;8.062;2022-11-13T15:10:39;12.00;99.90
8711;DHT22;4392;47.400;8.062;2022-11-13T15:13:14;11.90;99.90
8711;DHT22;4392;47.400;8.062;2022-11-13T15:15:40;11.90;99.90
8711;DHT22;4392;47.400;8.062;2022-11-13T15:18:12;11.90;99.90
8711;DHT22;4392;47.400;8.062;2022-11-13T15:20:41;12.20;99.90
8711;DHT22;4392;47.400;8.062;2022-11-13T15:23:10;12.90;99.90
8711;DHT22;4392;47.400;8.062;2022-11-13T15:25:37;12.40;99.90
8711;DHT22;4392;47.400;8.062;2022-11-13T15:28:02;11.90;99.90
8711;DHT22;4392;47.400;8.062;2022-11-13T15:30:28;11.70;99.90
8711;DHT22;4392;47.400;8.062;2022-11-13T15:33:07;11.60;99.90
8711;DHT22;4392;47.400;8.062;2022-11-13T15:35:34;11.50;99.90
8711;DHT22;4392;47.400;8.062;2022-11-13T15:38:00;11.40;99.90
8711;DHT22;4392;47.400;8.062;2022-11-13T15:40:26;11.40;99.90
8711;DHT22;4392;47.400;8.062;2022-11-13T15:42:53;11.40;99.90
8711;DHT22;4392;47.400;8.062;2022-11-13T15:45:21;11.40;99.90
8711;DHT22;4392;47.400;8.062;2022-11-13T15:47:47;11.60;99.90
8711;DHT22;4392;47.400;8.062;2022-11-13T15:50:13;11.70;99.90
8711;DHT22;4392;47.400;8.062;2022-11-13T15:52:41;11.80;99.90
8711;DHT22;4392;47.400;8.062;2022-11-13T15:55:24;12.00;99.90
8711;DHT22;4392;47.400;8.062;2022-11-13T15:57:52;12.30;99.90
8711;DHT22;4392;47.400;8.062;2022-11-13T16:00:20;12.20;99.90
8711;DHT22;4392;47.400;8.062;2022-11-13T16:02:49;12.30;99.90
8711;DHT22;4392;47.400;8.062;2022-11-13T16:05:16;12.20;99.90
8711;DHT22;4392;47.400;8.062;2022-11-13T16:07:43;12.20;99.90
8711;DHT22;4392;47.400;8.062;2022-11-13T16:10:10;12.20;99.90
8711;DHT22;4392;47.400;8.062;2022-11-13T16:12:35;12.00;99.90
8711;DHT22;4392;47.400;8.062;2022-11-13T16:15:01;12.00;99.90
8711;DHT22;4392;47.400;8.062;2022-11-13T16:17:27;11.80;99.90
8711;DHT22;4392;47.400;8.062;2022-11-13T16:19:54;12.00;99.90
8711;DHT22;4392;47.400;8.062;2022-11-13T16:22:23;12.10;99.90
8711;DHT22;4392;47.400;8.062;2022-11-13T16:24:49;12.00;99.90
8711;DHT22;4392;47.400;8.062;2022-11-13T16:27:25;11.90;99.90
8711;DHT22;4392;47.400;8.062;2022-11-13T16:29:57;11.80;99.90
8711;DHT22;4392;47.400;8.062;2022-11-13T16:32:23;11.80;99.90
8711;DHT22;4392;47.400;8.062;2022-11-13T16:34:49;11.70;99.90
8711;DHT22;4392;47.400;8.062;2022-11-13T16:37:22;11.80;99.90
8711;DHT22;4392;47.400;8.062;2022-11-13T16:39:48;11.70;99.90
8711;DHT22;4392;47.400;8.062;2022-11-13T16:42:18;11.60;99.90
8711;DHT22;4392;47.400;8.062;2022-11-13T16:44:44;11.60;99.90
8711;DHT22;4392;47.400;8.062;2022-11-13T16:47:28;11.60;99.90
8711;DHT22;4392;47.400;8.062;2022-11-13T16:49:54;11.60;99.90
8711;DHT22;4392;47.400;8.062;2022-11-13T16:52:21;11.60;99.90
8711;DHT22;4392;47.400;8.062;2022-11-13T16:54:46;11.60;99.90
8711;DHT22;4392;47.400;8.062;2022-11-13T16:57:13;11.50;99.90
8711;DHT22;4392;47.400;8.062;2022-11-13T16:59:39;11.50;99.90
8711;DHT22;4392;47.400;8.062;2022-11-13T17:02:15;11.80;99.90
8711;DHT22;4392;47.400;8.062;2022-11-13T17:04:43;12.20;99.90
8711;DHT22;4392;47.400;8.062;2022-11-13T17:07:13;11.80;99.90
8711;DHT22;4392;47.400;8.062;2022-11-13T17:09:41;11.40;99.90
8711;DHT22;4392;47.400;8.062;2022-11-13T17:12:08;11.10;99.90
8711;DHT22;4392;47.400;8.062;2022-11-13T17:14:34;11.00;99.90
8711;DHT22;4392;47.400;8.062;2022-11-13T17:17:14;10.90;99.90
8711;DHT22;4392;47.400;8.062;2022-11-13T17:19:55;10.80;99.90
8711;DHT22;4392;47.400;8.062;2022-11-13T17:22:21;10.80;99.90
8711;DHT22;4392;47.400;8.062;2022-11-13T17:24:48;10.70;99.90
8711;DHT22;4392;47.400;8.062;2022-11-13T17:27:15;10.70;99.90
8711;DHT22;4392;47.400;8.062;2022-11-13T17:29:54;10.70;99.90
8711;DHT22;4392;47.400;8.062;2022-11-13T17:32:20;10.70;99.90
8711;DHT22;4392;47.400;8.062;2022-11-13T17:35:07;10.70;99.90
8711;DHT22;4392;47.400;8.062;2022-11-13T17:37:52;10.60;99.90
8711;DHT22;4392;47.400;8.062;2022-11-13T17:40:18;10.60;99.90
8711;DHT22;4392;47.400;8.062;2022-11-13T17:42:44;10.60;99.90
8711;DHT22;4392;47.400;8.062;2022-11-13T17:45:12;10.60;99.90
8711;DHT22;4392;47.400;8.062;2022-11-13T17:47:37;10.80;99.90